Time;durP1;ratioP1;P1;durP2;ratioP2;P2;SDS_P1;SDS_P2;PMS_P1;PMS_P2;Temp;Humidity;BMP_temperature;BMP_pressure;BME280_temperature;BME280_humidity;BME280_pressure;Samples;Min_cycle;Max_cycle;Signal;HPM_P1;HPM_P2
2023/06/18 00:00:43;;;;;;;9.90;4.82;;;;;;;17.31;44.29;99641.41;6159186;23;20367;-84
2023/06/18 00:03:09;;;;;;;10.25;4.53;;;;;;;17.24;44.50;99638.44;6184932;23;20021;-85
2023/06/18 00:05:35;;;;;;;10.45;4.72;;;;;;;17.15;44.15;99622.00;6134031;23;20028;-86
2023/06/18 00:08:01;;;;;;;14.10;4.53;;;;;;;17.30;44.31;99648.91;6159142;23;20041;-84
2023/06/18 00:10:27;;;;;;;10.67;4.63;;;;;;;17.18;44.63;99642.59;6109676;23;20410;-85
2023/06/18 00:12:53;;;;;;;13.85;5.20;;;;;;;17.23;44.61;99650.66;6185509;23;20021;-88
2023/06/18 00:15:18;;;;;;;22.30;5.47;;;;;;;16.98;45.13;99619.53;6186601;23;20012;-86
2023/06/18 00:17:45;;;;;;;16.23;6.05;;;;;;;17.23;45.26;99650.66;6185919;23;20049;-85
2023/06/18 00:20:11;;;;;;;18.13;5.27;;;;;;;16.98;45.33;99623.09;6158704;23;20027;-84
2023/06/18 00:22:38;;;;;;;11.63;5.55;;;;;;;17.21;45.11;99650.19;6158540;23;20009;-84
2023/06/18 00:25:05;;;;;;;15.32;5.75;;;;;;;17.19;45.09;99641.47;6158952;23;20017;-84
2023/06/18 00:27:31;;;;;;;17.38;6.00;;;;;;;17.28;45.32;99651.22;6158431;23;20024;-86
2023/06/18 00:29:59;;;;;;;19.38;6.35;;;;;;;17.29;45.38;99647.31;6159063;23;20021;-86
2023/06/18 00:32:25;;;;;;;20.02;6.32;;;;;;;17.23;45.39;99640.41;6185087;23;20023;-86
2023/06/18 00:34:53;;;;;;;18.98;6.38;;;;;;;17.29;45.31;99650.06;6159132;23;20043;-85
2023/06/18 00:37:25;;;;;;;23.15;6.95;;;;;;;17.31;45.29;99652.47;6136109;23;20023;-87
2023/06/18 00:39:51;;;;;;;15.85;5.88;;;;;;;17.31;45.27;99642.22;6160279;23;20025;-85
2023/06/18 00:42:18;;;;;;;18.65;6.78;;;;;;;17.26;45.71;99641.69;6185917;23;20450;-84
2023/06/18 00:44:44;;;;;;;13.48;6.03;;;;;;;17.21;45.63;99641.91;6159339;23;20020;-84
2023/06/18 00:47:14;;;;;;;14.75;5.15;;;;;;;17.01;45.61;99622.38;6185790;23;20357;-84
2023/06/18 00:49:43;;;;;;;18.15;6.03;;;;;;;17.06;45.62;99633.22;6159599;23;20038;-84
2023/06/18 00:52:12;;;;;;;24.77;5.95;;;;;;;16.95;46.07;99621.00;6158182;23;20053;-85
2023/06/18 00:54:40;;;;;;;14.77;5.43;;;;;;;17.01;46.12;99638.97;6153131;23;20017;-85
2023/06/18 00:57:08;;;;;;;18.60;5.47;;;;;;;17.17;46.26;99652.84;6156136;23;20069;-84
2023/06/18 00:59:37;;;;;;;11.15;5.43;;;;;;;17.06;46.86;99640.69;6154174;23;20040;-85
2023/06/18 01:02:03;;;;;;;18.70;6.15;;;;;;;17.01;47.02;99635.41;6153406;23;20080;-86
2023/06/18 01:04:35;;;;;;;18.13;5.90;;;;;;;16.96;47.74;99641.19;6154887;23;20033;-85
2023/06/18 01:07:02;;;;;;;13.52;5.22;;;;;;;16.94;48.12;99651.75;6153329;23;20464;-85
2023/06/18 01:09:30;;;;;;;29.70;6.95;;;;;;;17.04;47.58;99673.38;6128646;23;20017;-86
2023/06/18 01:12:00;;;;;;;76.60;7.80;;;;;;;17.00;47.79;99670.50;6155449;23;20379;-85
2023/06/18 01:14:28;;;;;;;25.90;5.70;;;;;;;17.03;46.85;99669.81;6152689;23;20340;-85
2023/06/18 01:17:01;;;;;;;41.08;6.05;;;;;;;16.88;46.75;99648.41;6153494;23;20017;-84
2023/06/18 01:19:45;;;;;;;22.05;5.53;;;;;;;17.05;47.48;99683.25;6155102;23;20028;-87
2023/06/18 01:22:40;;;;;;;17.88;5.07;;;;;;;17.02;46.60;99679.25;6153197;23;20025;-87
2023/06/18 01:25:08;;;;;;;10.45;4.70;;;;;;;17.03;46.63;99683.63;6082534;23;20477;-85
2023/06/18 01:27:43;;;;;;;14.02;4.82;;;;;;;17.01;46.44;99669.34;6154730;23;20017;-85
2023/06/18 01:30:11;;;;;;;11.48;5.13;;;;;;;16.90;46.09;99648.88;6153573;23;20052;-86
2023/06/18 01:32:38;;;;;;;15.00;5.13;;;;;;;17.18;46.38;99692.34;6104507;23;20017;-86
2023/06/18 01:35:06;;;;;;;12.23;4.75;;;;;;;17.16;46.29;99689.13;6154730;23;20100;-85
2023/06/18 01:38:01;;;;;;;22.55;5.30;;;;;;;17.27;45.99;99698.53;6129275;23;20021;-85
2023/06/18 01:40:39;;;;;;;15.95;5.05;;;;;;;17.28;45.70;99697.38;6140608;23;20021;-85
2023/06/18 01:43:27;;;;;;;12.90;5.28;;;;;;;17.27;46.25;99704.06;6153454;23;20044;-85
2023/06/18 01:46:14;;;;;;;16.50;5.43;;;;;;;17.14;46.92;99676.47;6153198;23;20022;-85
2023/06/18 01:49:06;;;;;;;18.20;5.53;;;;;;;17.34;47.73;99693.22;6153805;23;20013;-85
2023/06/18 01:51:35;;;;;;;20.48;5.80;;;;;;;17.30;45.93;99700.63;6155185;23;20507;-85
2023/06/18 01:54:03;;;;;;;13.43;5.57;;;;;;;17.42;45.49;99705.28;6155016;23;20017;-85
2023/06/18 01:56:30;;;;;;;14.82;5.90;;;;;;;17.50;46.08;99710.69;6153790;23;20024;-86
2023/06/18 01:58:56;;;;;;;;;;;;;;;17.52;46.40;99713.13;6155560;23;20466;-85
2023/06/18 02:01:22;;;;;;;14.13;5.13;;;;;;;17.57;46.51;99705.38;6179261;23;19917;-83
2023/06/18 02:03:48;;;;;;;26.60;6.35;;;;;;;17.41;46.71;99679.63;6155619;23;20024;-85
2023/06/18 02:06:14;;;;;;;23.92;5.93;;;;;;;17.55;46.52;99693.06;6155482;23;20023;-85
2023/06/18 02:08:41;;;;;;;31.65;6.53;;;;;;;17.45;47.05;99680.56;6153808;23;20021;-87
2023/06/18 02:11:08;;;;;;;20.65;5.20;;;;;;;17.64;46.82;99709.50;6154739;23;20025;-84
2023/06/18 02:13:34;;;;;;;23.88;5.85;;;;;;;17.61;46.20;99703.53;6128035;23;20112;-84
2023/06/18 02:16:00;;;;;;;20.58;5.22;;;;;;;17.53;46.47;99693.41;6155117;23;20109;-84
2023/06/18 02:18:31;;;;;;;17.75;5.47;;;;;;;17.65;46.35;99694.50;6154592;23;20017;-84
2023/06/18 02:20:57;;;;;;;29.73;6.45;;;;;;;17.70;45.70;99706.13;6153137;23;20017;-85
2023/06/18 02:23:27;;;;;;;20.55;6.18;;;;;;;17.64;45.67;99693.72;6153495;23;20465;-85
2023/06/18 02:25:53;;;;;;;17.85;6.30;;;;;;;17.61;45.54;99691.66;6129177;23;20420;-86
2023/06/18 02:28:19;;;;;;;19.05;6.57;;;;;;;17.60;46.05;99693.59;6153733;23;20052;-84
2023/06/18 02:30:47;;;;;;;12.30;5.57;;;;;;;17.69;46.01;99712.84;6154932;23;20017;-84
2023/06/18 02:33:17;;;;;;;10.17;5.23;;;;;;;17.56;47.05;99708.50;6154818;23;20022;-85
2023/06/18 02:35:43;;;;;;;18.42;6.78;;;;;;;17.57;47.14;99704.56;6156457;23;20021;-85
2023/06/18 02:38:10;;;;;;;16.98;6.68;;;;;;;17.63;46.41;99725.28;6156978;23;20092;-86
2023/06/18 02:40:36;;;;;;;17.05;6.60;;;;;;;17.56;45.54;99719.56;6156671;23;20072;-85
2023/06/18 02:43:05;;;;;;;15.60;6.38;;;;;;;17.55;46.62;99731.78;6155326;23;20068;-86
2023/06/18 02:45:32;;;;;;;13.55;6.63;;;;;;;17.56;45.96;99725.88;6156086;23;20026;-85
2023/06/18 02:47:58;;;;;;;13.87;6.70;;;;;;;17.59;45.11;99719.66;6155692;23;20045;-85
2023/06/18 02:50:24;;;;;;;11.40;6.10;;;;;;;17.61;44.95;99741.41;6156912;23;20420;-87
2023/06/18 02:52:51;;;;;;;17.48;6.85;;;;;;;17.62;44.84;99731.97;6154975;23;20456;-86
2023/06/18 02:55:17;;;;;;;15.63;6.87;;;;;;;17.56;44.81;99714.03;6171244;23;20087;-85
2023/06/18 02:57:45;;;;;;;13.45;7.25;;;;;;;17.73;45.08;99735.06;6186131;23;20031;-84
2023/06/18 03:00:12;;;;;;;16.30;6.95;;;;;;;17.73;44.71;99729.53;6160340;23;20017;-87
2023/06/18 03:02:41;;;;;;;17.92;6.68;;;;;;;17.76;44.95;99728.81;6161823;23;20366;-86
2023/06/18 03:05:14;;;;;;;14.93;6.47;;;;;;;17.76;44.36;99731.59;6162451;23;20017;-87
2023/06/18 03:07:40;;;;;;;20.00;7.07;;;;;;;17.66;45.18;99732.09;6159634;23;20053;-86
2023/06/18 03:10:08;;;;;;;15.20;7.00;;;;;;;17.58;45.43;99715.28;6187046;23;20017;-87
2023/06/18 03:12:36;;;;;;;14.10;6.97;;;;;;;17.77;45.78;99733.22;6161063;23;20024;-87
2023/06/18 03:15:10;;;;;;;19.92;8.02;;;;;;;17.78;45.02;99726.53;6160810;23;20120;-85
2023/06/18 03:17:36;;;;;;;10.32;6.72;;;;;;;17.74;45.96;99736.66;6135492;23;20020;-85
2023/06/18 03:20:05;;;;;;;16.60;7.70;;;;;;;17.75;45.60;99739.09;6160968;23;20016;-85
2023/06/18 03:22:32;;;;;;;18.88;7.45;;;;;;;17.76;45.99;99739.88;6161031;23;20355;-85
2023/06/18 03:25:00;;;;;;;14.50;7.25;;;;;;;17.70;45.91;99739.31;6160844;23;20237;-86
2023/06/18 03:27:27;;;;;;;14.38;7.00;;;;;;;17.73;46.29;99746.13;6162004;23;20066;-85
2023/06/18 03:29:55;;;;;;;16.15;8.05;;;;;;;17.64;46.39;99734.38;6188507;23;20067;-86
2023/06/18 03:32:23;;;;;;;13.52;6.57;;;;;;;17.55;45.75;99731.78;6137581;23;20023;-84
2023/06/18 03:34:50;;;;;;;17.95;7.78;;;;;;;17.65;46.07;99742.34;6135040;23;20452;-86
2023/06/18 03:37:20;;;;;;;15.00;7.10;;;;;;;17.60;45.95;99745.34;6159639;23;20435;-86
2023/06/18 03:39:46;;;;;;;16.77;7.00;;;;;;;17.62;46.33;99743.03;6159276;23;20454;-86
2023/06/18 03:42:12;;;;;;;16.55;7.38;;;;;;;17.46;46.51;99722.81;6160290;23;20024;-86
2023/06/18 03:44:38;;;;;;;16.67;7.88;;;;;;;17.64;46.53;99737.94;6159870;23;20017;-86
2023/06/18 03:47:05;;;;;;;20.10;7.82;;;;;;;17.58;46.14;99726.34;6159449;23;20013;-84
2023/06/18 03:49:34;;;;;;;12.73;7.68;;;;;;;17.57;45.99;99721.97;6134686;23;20024;-82
2023/06/18 03:51:59;;;;;;;19.45;7.72;;;;;;;17.69;47.03;99729.41;6185476;23;20475;-84
2023/06/18 03:54:26;;;;;;;20.73;7.35;;;;;;;17.90;46.36;99745.84;6160410;23;20075;-85
2023/06/18 03:56:54;;;;;;;14.48;6.85;;;;;;;17.98;45.74;99744.91;6111216;23;20075;-85
2023/06/18 03:59:20;;;;;;;14.25;7.82;;;;;;;18.12;45.59;99750.03;6111103;23;20013;-84
2023/06/18 04:01:46;;;;;;;15.20;7.03;;;;;;;18.19;45.59;99747.47;6159687;23;20067;-86
2023/06/18 04:04:12;;;;;;;17.83;6.90;;;;;;;18.31;45.85;99768.75;6160579;23;20013;-85
2023/06/18 04:06:39;;;;;;;24.80;7.10;;;;;;;18.37;45.66;99767.31;6186739;23;20017;-86
2023/06/18 04:09:08;;;;;;;14.80;7.30;;;;;;;18.41;45.41;99759.94;6137267;23;20355;-85
2023/06/18 04:11:38;;;;;;;22.75;7.13;;;;;;;18.46;45.97;99761.63;6187105;23;20025;-86
2023/06/18 04:14:04;;;;;;;12.40;6.63;;;;;;;18.58;45.60;99760.75;6135436;23;20021;-86
2023/06/18 04:16:32;;;;;;;16.67;6.57;;;;;;;18.66;44.99;99749.47;6160495;23;20013;-86
2023/06/18 04:18:58;;;;;;;43.20;8.30;;;;;;;18.65;45.88;99720.19;6136130;23;20013;-85
2023/06/18 04:21:24;;;;;;;15.43;7.43;;;;;;;18.97;44.85;99753.44;6161150;23;20355;-88
2023/06/18 04:23:54;;;;;;;17.33;7.03;;;;;;;19.02;43.93;99751.19;6161193;23;20104;-85
2023/06/18 04:26:21;;;;;;;12.38;6.30;;;;;;;19.16;45.07;99763.78;6161030;23;20017;-87
2023/06/18 04:28:49;;;;;;;;;;;;;;;19.30;45.82;99768.88;6159536;23;20018;-87
2023/06/18 04:31:15;;;;;;;14.45;7.35;;;;;;;19.35;45.73;99763.06;6189633;23;19916;-89
2023/06/18 04:33:41;;;;;;;16.23;6.90;;;;;;;19.22;45.09;99743.75;6139292;23;20024;-89
2023/06/18 04:36:07;;;;;;;18.17;7.03;;;;;;;19.16;44.54;99739.66;6189642;23;20016;-87
2023/06/18 04:38:33;;;;;;;19.77;5.75;;;;;;;19.44;44.20;99758.91;6186129;23;20098;-87
2023/06/18 04:41:00;;;;;;;14.77;5.13;;;;;;;19.44;43.34;99753.38;6136335;23;20024;-88
2023/06/18 04:43:26;;;;;;;23.38;6.20;;;;;;;19.77;45.23;99774.34;6139053;23;20009;-89
2023/06/18 04:45:53;;;;;;;20.77;5.40;;;;;;;19.78;43.72;99741.84;6117147;23;20164;-90
2023/06/18 04:48:22;;;;;;;12.68;5.20;;;;;;;19.86;43.96;99730.50;6192927;23;20579;-90
2023/06/18 04:50:49;;;;;;;11.95;4.72;;;;;;;19.89;44.08;99712.34;6142821;23;20031;-90
2023/06/18 04:53:17;;;;;;;13.93;5.20;;;;;;;20.10;44.59;99731.41;6141747;23;20013;-92
2023/06/18 04:55:44;;;;;;;14.68;4.88;;;;;;;20.34;41.54;99761.59;6118007;23;20052;-88
2023/06/18 04:58:10;;;;;;;10.90;3.88;;;;;;;20.46;40.44;99771.72;6163800;23;20017;-88
2023/06/18 05:00:38;;;;;;;10.35;4.28;;;;;;;20.56;40.82;99778.69;6160061;23;20020;-82
2023/06/18 05:03:04;;;;;;;10.48;4.10;;;;;;;20.53;40.95;99765.53;6187590;23;20020;-85
2023/06/18 05:05:31;;;;;;;12.60;3.97;;;;;;;20.57;37.87;99760.84;6161138;23;20021;-85
2023/06/18 05:07:57;;;;;;;12.80;4.93;;;;;;;20.48;38.45;99749.94;6159803;23;20024;-85
2023/06/18 05:10:25;;;;;;;13.07;6.13;;;;;;;20.58;38.06;99754.91;6159404;23;20017;-85
2023/06/18 05:12:51;;;;;;;11.13;4.28;;;;;;;20.65;38.50;99773.69;6134016;23;20013;-85
2023/06/18 05:15:17;;;;;;;5.68;3.33;;;;;;;20.56;37.44;99768.38;6160011;23;20012;-85
2023/06/18 05:17:43;;;;;;;8.40;3.60;;;;;;;20.68;39.32;99766.59;6160448;23;20047;-87
2023/06/18 05:20:13;;;;;;;19.10;4.38;;;;;;;20.72;38.90;99762.69;6185143;23;20055;-86
2023/06/18 05:22:40;;;;;;;11.30;3.45;;;;;;;20.68;37.79;99744.38;6159051;23;20013;-86
2023/06/18 05:25:10;;;;;;;8.95;3.10;;;;;;;20.84;38.00;99759.75;6139827;23;20020;-86
2023/06/18 05:27:36;;;;;;;6.72;2.80;;;;;;;20.74;37.39;99743.69;6090426;23;20016;-85
2023/06/18 05:30:04;;;;;;;13.57;3.72;;;;;;;20.90;37.38;99759.44;6158830;23;20021;-84
2023/06/18 05:32:32;;;;;;;22.27;3.90;;;;;;;21.01;37.96;99765.97;6160163;23;20028;-85
2023/06/18 05:35:02;;;;;;;22.27;3.65;;;;;;;21.10;36.96;99772.06;6158842;23;20009;-85
2023/06/18 05:37:29;;;;;;;16.35;3.70;;;;;;;21.18;36.85;99776.56;6134919;23;20017;-85
2023/06/18 05:39:56;;;;;;;12.15;3.67;;;;;;;21.12;36.54;99758.59;6134025;23;20023;-84
2023/06/18 05:42:26;;;;;;;8.75;3.80;;;;;;;21.21;37.65;99764.69;6132461;23;20021;-86
2023/06/18 05:44:54;;;;;;;8.10;3.47;;;;;;;21.35;35.56;99772.47;6157945;23;20048;-88
2023/06/18 05:47:20;;;;;;;;;;;;;;;21.40;35.90;99766.59;6156740;23;20024;-85
2023/06/18 05:49:46;;;;;;;18.60;4.07;;;;;;;21.45;36.38;99769.03;6156908;23;19954;-87
2023/06/18 05:52:12;;;;;;;13.90;3.57;;;;;;;21.53;36.46;99772.75;6107055;23;20020;-85
2023/06/18 05:54:39;;;;;;;13.00;3.90;;;;;;;21.57;35.40;99768.84;6155167;23;20075;-87
2023/06/18 05:57:05;;;;;;;7.50;3.70;;;;;;;21.52;35.18;99746.91;6131387;23;20451;-87
2023/06/18 05:59:31;;;;;;;30.57;4.00;;;;;;;21.69;35.63;99776.16;6129130;23;20013;-88
2023/06/18 06:02:05;;;;;;;16.92;4.95;;;;;;;21.77;35.38;99760.34;6132196;23;20017;-87
2023/06/18 06:04:31;;;;;;;7.68;3.42;;;;;;;21.71;34.71;99745.97;6106431;23;20413;-87
2023/06/18 06:06:57;;;;;;;12.53;3.87;;;;;;;21.86;34.55;99760.09;6157390;23;20017;-85
2023/06/18 06:09:27;;;;;;;6.20;3.75;;;;;;;21.97;34.56;99770.16;6133775;23;20032;-86
2023/06/18 06:11:55;;;;;;;14.50;3.75;;;;;;;21.96;34.63;99754.63;6184323;23;20074;-87
2023/06/18 06:14:22;;;;;;;11.20;3.65;;;;;;;21.98;34.81;99760.59;6157671;23;20100;-84
2023/06/18 06:16:55;;;;;;;6.57;3.40;;;;;;;21.98;35.14;99754.25;6132599;23;20025;-86
2023/06/18 06:19:21;;;;;;;10.68;3.92;;;;;;;21.81;32.65;99742.50;6183922;23;20013;-86
2023/06/18 06:21:47;;;;;;;9.47;4.03;;;;;;;22.03;33.52;99767.84;6133483;23;20021;-86
2023/06/18 06:24:15;;;;;;;23.90;4.43;;;;;;;21.96;33.95;99739.94;6159042;23;20024;-86
2023/06/18 06:26:41;;;;;;;17.95;3.90;;;;;;;22.06;32.70;99747.59;6156630;23;20252;-87
2023/06/18 06:29:08;;;;;;;10.68;3.67;;;;;;;22.16;33.61;99749.72;6184182;23;20348;-87
2023/06/18 06:31:34;;;;;;;8.73;3.38;;;;;;;22.17;33.76;99744.97;6133119;23;20021;-85
2023/06/18 06:34:00;;;;;;;12.57;3.90;;;;;;;22.22;32.85;99747.41;6183205;23;20021;-87
2023/06/18 06:36:26;;;;;;;13.33;3.77;;;;;;;22.27;31.25;99755.41;6156596;23;20017;-86
2023/06/18 06:38:53;;;;;;;14.98;3.97;;;;;;;22.19;31.73;99750.97;6155779;23;20252;-85
2023/06/18 06:41:19;;;;;;;16.97;3.57;;;;;;;22.35;32.82;99756.28;6184794;23;20329;-84
2023/06/18 06:43:46;;;;;;;13.48;3.63;;;;;;;22.38;32.22;99747.97;6182879;23;20813;-88
2023/06/18 06:46:34;;;;;;;15.02;4.45;;;;;;;22.39;31.66;99746.00;6182013;23;20021;-86
2023/06/18 06:49:22;;;;;;;17.15;4.18;;;;;;;22.48;29.80;99752.88;6155560;23;20031;-82
2023/06/18 06:52:06;;;;;;;15.57;4.18;;;;;;;22.37;31.20;99737.22;6180756;23;20023;-81
2023/06/18 06:54:33;;;;;;;23.48;4.53;;;;;;;22.48;31.59;99752.03;6154729;23;20021;-83
2023/06/18 06:57:00;;;;;;;10.57;3.63;;;;;;;22.57;30.04;99743.38;6130281;23;20044;-82
2023/06/18 06:59:26;;;;;;;;;;;;;;;22.76;31.42;99751.53;6151875;23;20162;-81
2023/06/18 07:01:52;;;;;;;12.23;4.05;;;;;;;22.77;31.46;99733.59;6155239;23;19962;-82
2023/06/18 07:04:19;;;;;;;18.80;4.30;;;;;;;22.93;31.48;99758.47;6154855;23;20040;-82
2023/06/18 07:06:45;;;;;;;29.83;4.38;;;;;;;23.05;31.24;99744.22;6181290;23;20055;-83
2023/06/18 07:09:11;;;;;;;49.25;6.20;;;;;;;23.07;30.87;99757.78;6181245;23;20019;-83
2023/06/18 07:11:37;;;;;;;44.03;5.57;;;;;;;23.06;30.01;99750.59;6180964;23;20020;-82
2023/06/18 07:14:03;;;;;;;48.88;6.05;;;;;;;23.07;30.44;99747.41;6181960;23;20044;-81
2023/06/18 07:16:29;;;;;;;34.22;4.63;;;;;;;22.89;29.74;99721.38;6180414;23;20017;-81
2023/06/18 07:18:55;;;;;;;21.97;4.77;;;;;;;23.13;29.70;99748.66;6154575;23;20039;-83
2023/06/18 07:21:21;;;;;;;19.87;3.83;;;;;;;23.15;30.51;99743.50;6179356;23;20369;-80
2023/06/18 07:23:47;;;;;;;11.00;3.87;;;;;;;23.09;30.23;99731.09;6154021;23;20669;-82
2023/06/18 07:26:13;;;;;;;11.43;4.13;;;;;;;22.92;28.31;99712.22;6154755;23;20023;-84
2023/06/18 07:28:39;;;;;;;16.95;4.10;;;;;;;23.13;30.16;99739.50;6180318;23;20418;-82
2023/06/18 07:31:05;;;;;;;11.43;3.67;;;;;;;23.16;29.04;99745.09;6154828;23;20021;-83
2023/06/18 07:33:31;;;;;;;16.35;4.93;;;;;;;23.23;29.74;99743.56;6181575;23;20455;-80
2023/06/18 07:35:57;;;;;;;12.23;4.20;;;;;;;23.21;28.55;99729.97;6154641;23;20443;-82
2023/06/18 07:38:23;;;;;;;20.50;4.15;;;;;;;23.26;30.87;99740.00;6181418;23;20103;-82
2023/06/18 07:40:50;;;;;;;9.20;3.83;;;;;;;23.20;30.56;99731.19;6180813;23;20016;-83
2023/06/18 07:43:15;;;;;;;;;;;;;;;23.54;31.41;99742.97;6180821;23;20103;-82
2023/06/18 07:45:41;;;;;;;17.08;3.88;;;;;;;23.72;30.30;99734.69;6180909;23;19951;-80
2023/06/18 07:48:07;;;;;;;14.87;3.70;;;;;;;23.83;29.99;99741.13;6181587;23;20756;-82
2023/06/18 07:50:34;;;;;;;13.60;4.07;;;;;;;23.85;28.95;99741.53;6180890;23;20299;-81
2023/06/18 07:53:00;;;;;;;9.35;3.72;;;;;;;23.75;28.85;99741.50;6182020;23;20095;-81
2023/06/18 07:55:26;;;;;;;11.35;3.72;;;;;;;23.39;28.44;99733.69;6181798;23;20048;-83
2023/06/18 07:57:52;;;;;;;15.15;3.95;;;;;;;23.44;30.70;99724.16;6177904;23;20037;-84
2023/06/18 08:00:18;;;;;;;10.93;3.97;;;;;;;23.64;30.00;99727.44;6181353;23;20032;-88
2023/06/18 08:02:45;;;;;;;11.82;4.28;;;;;;;23.72;28.83;99740.28;6182132;23;20562;-85
2023/06/18 08:05:11;;;;;;;11.15;3.42;;;;;;;23.85;30.00;99732.38;6155250;23;20025;-83
2023/06/18 08:07:37;;;;;;;15.10;3.83;;;;;;;23.86;29.75;99737.53;6181425;23;20021;-83
2023/06/18 08:10:04;;;;;;;8.77;4.05;;;;;;;23.88;28.71;99724.00;6154914;23;20066;-83
2023/06/18 08:12:30;;;;;;;9.82;4.32;;;;;;;24.02;28.52;99734.41;6181105;23;20032;-81
2023/06/18 08:14:57;;;;;;;8.95;3.70;;;;;;;24.02;28.87;99725.25;6180088;23;20467;-82
2023/06/18 08:17:23;;;;;;;10.27;4.10;;;;;;;23.84;27.06;99719.56;6180163;23;20343;-86
2023/06/18 08:19:49;;;;;;;11.25;4.03;;;;;;;23.83;28.16;99721.56;6181241;23;20027;-84
2023/06/18 08:22:16;;;;;;;19.83;4.80;;;;;;;23.92;27.38;99735.19;6181419;23;20041;-84
2023/06/18 08:24:42;;;;;;;11.13;4.03;;;;;;;23.94;28.34;99720.81;6154319;23;20043;-82
2023/06/18 08:27:08;;;;;;;9.13;4.07;;;;;;;24.09;28.42;99728.06;6181271;23;20021;-83
2023/06/18 08:29:35;;;;;;;6.88;3.70;;;;;;;24.27;29.97;99725.28;6179790;23;20021;-82
2023/06/18 08:32:04;;;;;;;13.10;4.00;;;;;;;24.14;26.18;99713.72;6180577;23;20017;-86
2023/06/18 08:34:36;;;;;;;14.23;4.10;;;;;;;24.10;27.67;99724.06;6185024;23;20100;-83
2023/06/18 08:37:03;;;;;;;56.67;6.65;;;;;;;24.14;27.53;99727.69;6184517;23;20446;-84
2023/06/18 08:39:29;;;;;;;105.53;9.02;;;;;;;24.13;28.22;99703.72;6157063;23;20028;-84
2023/06/18 08:42:00;;;;;;;54.33;6.03;;;;;;;24.20;25.94;99716.91;6183663;23;20020;-84
2023/06/18 08:44:30;;;;;;;32.47;4.90;;;;;;;24.07;26.14;99711.72;6183765;23;20072;-82
2023/06/18 08:47:00;;;;;;;17.85;4.57;;;;;;;24.05;26.83;99707.69;6129729;23;20024;-82
2023/06/18 08:49:27;;;;;;;11.73;3.92;;;;;;;24.05;26.32;99716.09;6180295;23;20020;-82
2023/06/18 08:51:54;;;;;;;11.23;3.88;;;;;;;23.99;25.78;99710.06;6180519;23;20021;-83
2023/06/18 08:54:27;;;;;;;17.40;4.93;;;;;;;24.08;26.27;99715.28;6179969;23;20017;-83
2023/06/18 08:57:00;;;;;;;15.45;4.35;;;;;;;23.90;26.94;99696.47;6153701;23;20605;-82
2023/06/18 08:59:26;;;;;;;9.75;4.03;;;;;;;24.14;27.98;99719.31;6180007;23;20024;-84
2023/06/18 09:01:53;;;;;;;;;;;;;;;24.17;28.58;99723.28;6153658;23;20083;-82
2023/06/18 09:04:21;;;;;;;36.67;5.53;;;;;;;24.27;27.65;99720.53;6179244;23;19994;-81
2023/06/18 09:06:48;;;;;;;16.27;5.05;;;;;;;24.28;27.93;99719.34;6179839;23;20020;-83
2023/06/18 09:09:21;;;;;;;33.60;5.50;;;;;;;24.32;26.78;99702.56;6153775;23;20017;-82
2023/06/18 09:11:46;;;;;;;9.00;4.47;;;;;;;24.45;27.23;99708.63;6176759;23;20132;-81
2023/06/18 09:14:15;;;;;;;22.90;4.73;;;;;;;24.61;27.80;99704.22;6179609;23;20447;-85
2023/06/18 09:16:41;;;;;;;36.95;4.57;;;;;;;24.68;28.35;99692.25;6157121;23;20248;-80
2023/06/18 09:19:08;;;;;;;13.40;4.57;;;;;;;24.73;27.40;99685.44;6160702;23;20051;-82
2023/06/18 09:21:38;;;;;;;14.55;5.00;;;;;;;24.73;27.01;99693.84;6181471;23;20544;-83
2023/06/18 09:24:26;;;;;;;16.98;4.43;;;;;;;24.71;26.72;99685.88;6154205;23;20336;-81
2023/06/18 09:27:03;;;;;;;13.15;4.70;;;;;;;24.77;26.71;99687.06;6153887;23;20105;-83
2023/06/18 09:29:31;;;;;;;10.93;4.30;;;;;;;24.92;28.76;99679.44;6180755;23;20104;-82
2023/06/18 09:32:05;;;;;;;20.65;5.20;;;;;;;25.13;27.07;99681.44;6180022;23;20028;-85
2023/06/18 09:34:31;;;;;;;13.10;4.93;;;;;;;25.27;26.91;99689.03;6180212;23;20068;-82
2023/06/18 09:36:57;;;;;;;17.67;5.03;;;;;;;25.21;25.62;99671.03;6180311;23;20024;-81
2023/06/18 09:39:25;;;;;;;16.47;5.03;;;;;;;25.30;26.15;99688.22;6180606;23;20071;-81
2023/06/18 09:41:54;;;;;;;13.48;4.88;;;;;;;25.20;26.70;99680.63;6155226;23;20623;-86
2023/06/18 09:44:21;;;;;;;12.20;4.80;;;;;;;25.20;26.38;99691.81;6154017;23;20021;-84
2023/06/18 09:46:49;;;;;;;6.97;4.43;;;;;;;25.25;27.00;99685.81;6179464;23;20017;-81
2023/06/18 09:49:17;;;;;;;12.50;4.45;;;;;;;25.24;26.11;99673.84;6179350;23;20071;-82
2023/06/18 09:51:45;;;;;;;10.20;4.53;;;;;;;25.23;25.60;99674.22;6128910;23;20024;-82
2023/06/18 09:54:13;;;;;;;19.75;5.28;;;;;;;25.17;26.52;99648.66;6152872;23;20028;-82
2023/06/18 09:56:39;;;;;;;14.43;4.55;;;;;;;25.31;26.17;99673.81;6149619;23;20333;-80
2023/06/18 09:59:05;;;;;;;10.05;4.35;;;;;;;25.20;25.86;99664.66;6151102;23;20021;-83
2023/06/18 10:01:45;;;;;;;17.55;4.70;;;;;;;25.35;27.51;99659.81;6150805;23;20564;-85
2023/06/18 10:04:11;;;;;;;32.90;5.13;;;;;;;25.31;25.37;99662.63;6152170;23;20024;-81
2023/06/18 10:06:40;;;;;;;18.35;4.97;;;;;;;25.30;26.33;99672.22;6150539;23;20022;-82
2023/06/18 10:09:08;;;;;;;18.00;5.07;;;;;;;25.28;25.23;99673.81;6150206;23;20600;-83
2023/06/18 10:11:36;;;;;;;21.23;5.97;;;;;;;25.40;25.69;99665.00;6145392;23;20460;-81
2023/06/18 10:14:08;;;;;;;13.85;4.30;;;;;;;25.55;25.23;99663.72;6149925;23;20165;-86
2023/06/18 10:16:35;;;;;;;9.52;4.85;;;;;;;25.62;24.96;99660.09;6150335;23;20028;-82
2023/06/18 10:19:13;;;;;;;11.93;4.10;;;;;;;25.73;25.98;99660.84;6148679;23;20028;-82
2023/06/18 10:21:47;;;;;;;8.88;4.60;;;;;;;25.92;26.02;99662.38;6149089;23;20021;-81
2023/06/18 10:24:17;;;;;;;17.27;4.10;;;;;;;25.93;25.58;99658.38;6147943;23;20359;-84
2023/06/18 10:26:43;;;;;;;17.45;4.82;;;;;;;25.95;25.34;99655.94;6149542;23;20100;-81
2023/06/18 10:29:10;;;;;;;;;;;;;;;25.86;24.71;99657.59;6150173;23;20076;-86
2023/06/18 10:31:37;;;;;;;10.75;4.90;;;;;;;25.80;25.01;99653.63;6150159;23;20042;-83
2023/06/18 10:34:05;;;;;;;9.15;4.93;;;;;;;25.87;25.15;99657.22;6123629;23;20163;-83
2023/06/18 10:36:31;;;;;;;10.18;4.22;;;;;;;25.80;24.27;99636.81;6149801;23;20013;-82
2023/06/18 10:38:58;;;;;;;11.20;4.50;;;;;;;26.00;24.16;99652.72;6150525;23;20076;-84
2023/06/18 10:41:24;;;;;;;14.90;4.28;;;;;;;26.03;25.43;99637.13;6148871;23;20076;-84
2023/06/18 10:43:51;;;;;;;14.65;5.20;;;;;;;25.74;24.02;99636.44;6150249;23;20387;-82
2023/06/18 10:46:18;;;;;;;16.65;5.05;;;;;;;25.87;23.79;99650.81;6148449;23;20056;-84
2023/06/18 10:49:19;;;;;;;21.60;5.45;;;;;;;25.81;24.27;99644.84;6151675;23;20455;-85
2023/06/18 10:51:57;;;;;;;10.80;4.38;;;;;;;25.94;26.78;99645.16;6145725;23;20024;-82
2023/06/18 10:54:33;;;;;;;15.90;4.70;;;;;;;26.29;26.97;99643.31;6154796;23;20467;-83
2023/06/18 10:57:01;;;;;;;12.40;4.70;;;;;;;26.31;25.46;99624.91;6180837;23;20016;-85
2023/06/18 10:59:43;;;;;;;12.52;5.25;;;;;;;26.67;26.40;99638.66;6180875;23;20021;-84
2023/06/18 11:02:11;;;;;;;14.13;4.60;;;;;;;26.79;25.57;99637.31;6182531;23;20021;-85
2023/06/18 11:04:37;;;;;;;14.90;5.10;;;;;;;26.84;24.44;99642.50;6180690;23;20704;-84
2023/06/18 11:07:20;;;;;;;14.50;4.57;;;;;;;26.75;25.41;99634.56;6180420;23;20481;-84
2023/06/18 11:09:58;;;;;;;15.98;4.68;;;;;;;26.58;26.75;99627.09;6153816;23;20017;-84
2023/06/18 11:12:26;;;;;;;25.45;5.55;;;;;;;26.73;25.92;99634.19;6177707;23;20025;-83
2023/06/18 11:15:15;;;;;;;18.38;4.85;;;;;;;27.09;25.88;99634.63;6180608;23;20017;-80
2023/06/18 11:17:48;;;;;;;9.45;4.63;;;;;;;27.31;25.64;99637.22;6182098;23;20080;-84
2023/06/18 11:20:16;;;;;;;11.02;4.95;;;;;;;26.90;23.25;99638.81;6156935;23;20021;-83
2023/06/18 11:22:42;;;;;;;9.20;4.55;;;;;;;26.99;25.33;99631.91;6182467;23;20028;-81
2023/06/18 11:25:11;;;;;;;23.98;5.05;;;;;;;27.00;24.45;99633.53;6184233;23;20057;-80
2023/06/18 11:27:46;;;;;;;20.08;5.00;;;;;;;27.05;24.20;99621.84;6184701;23;20021;-86
2023/06/18 11:30:15;;;;;;;12.20;5.05;;;;;;;27.01;24.10;99621.06;6184600;23;20067;-82
2023/06/18 11:32:42;;;;;;;14.52;4.57;;;;;;;26.71;22.50;99609.34;6130605;23;20017;-82